Πλησιέστερες Αναφορές METAR

 

LGTS - Thessaloniki/Makedonia-Elev 7m
Απόσταση από σταθμό: Ν 13km
Ενημερώθηκε: 03/08/2021 00:50
Αίθριος
Αίθριος
 Ανεμοι από μεταβλητός
Ανεμος: μεταβλητός 6 km/h
Θερμοκρασία: 26°C
Σημείο Δρόσου: 20°C
Υγρασία: 70%
Βαρόμετρο: 1011 hPa
Περίληψη: Αίθριος
Ορατότητα: πάνω από 10 km
2021/08/02 21:50 LGTS 022150Z VRB03KT CAVOK 26/20 Q1011 NOSIG
LGAV - Athens/Elef. Venizelos-Elev 94m
Απόσταση από σταθμό: ΝΝΑ 312km
Ενημερώθηκε: 03/08/2021 00:50
Αίθριος
Αίθριος
 Ανεμοι από μεταβλητός
Ανεμος: μεταβλητός 4 km/h
Θερμοκρασία: 26°C
Σημείο Δρόσου: 15°C
Υγρασία: 51%
Βαρόμετρο: 1011 hPa
Περίληψη: Αίθριος
Ορατότητα: πάνω από 10 km
2021/08/02 21:50 LGAV 022150Z VRB02KT CAVOK 26/15 Q1011 NOSIG
 
LGAL - Alexandroupolis-Elev 3m
Απόσταση από σταθμό: Α 251km
Ενημερώθηκε: 02/08/2021 22:50
ΜΗ Ενημερωμένο METAR!
Αίθριος
Αίθριος
 Ανεμοι από μεταβλητός
Ανεμος: μεταβλητός 6 km/h
Θερμοκρασία: 26°C
Σημείο Δρόσου: 19°C
Υγρασία: 65%
Βαρόμετρο: 1009 hPa
Περίληψη: Αίθριος
Ορατότητα: πάνω από 10 km
2021/08/02 19:50 LGAL 021950Z VRB03KT CAVOK 26/19 Q1009
LGKV - Kavala/Crysoupolis-Elev 5m
Απόσταση από σταθμό: ΑΒΑ 144km
Ενημερώθηκε: 02/08/2021 23:20
ΜΗ Ενημερωμένο METAR!
Αίθριος
Αίθριος
 Ανεμοι από ΑΒΑ
Ανεμος: ΑΒΑ 6 km/h
Θερμοκρασία: 28°C
Δείκτης Δυσφορίας: 32°C
Σημείο Δρόσου: 25°C
Υγρασία: 84%
Βαρόμετρο: 1009 hPa
Περίληψη: Αίθριος
Ορατότητα: πάνω από 10 km
2021/08/02 20:20 LGKV 022020Z 06003KT CAVOK 28/25 Q1009
 
LGSK - Skiathos Island-Elev 15m
Απόσταση από σταθμό: ΝΝΑ 168km
Ενημερώθηκε: 02/08/2021 19:50
ΜΗ Ενημερωμένο METAR!
Αίθριος
Αίθριος
 Ανεμοι από ΝΝΔ
Ανεμος: ΝΝΔ 11 km/h
Θερμοκρασία: 33°C
Δείκτης Δυσφορίας: 36°C
Σημείο Δρόσου: 21°C
Υγρασία: 49%
Βαρόμετρο: 1008 hPa
Περίληψη: Αίθριος
Ορατότητα: πάνω από 10 km
2021/08/02 16:50 LGSK 021650Z 20006KT CAVOK 33/21 Q1008
LGLM - Limnos Island-Elev 5m
Απόσταση από σταθμό: ΑΝΑ 210km
Ενημερώθηκε: 03/08/2021 00:50
Αίθριος
Αίθριος
 Ανεμοι από άπνοια
Ανεμος: άπνοια
Θερμοκρασία: 27°C
Δείκτης Δυσφορίας: 28°C
Σημείο Δρόσου: 19°C
Υγρασία: 62%
Βαρόμετρο: 1009 hPa
Περίληψη: Αίθριος
Ορατότητα: πάνω από 10 km
2021/08/02 21:50 LGLM 022150Z 00000KT CAVOK 27/19 Q1009
 
LGMT - Mitilini Island-Elev 17m
Απόσταση από σταθμό: ΑΝΑ 358km
Ενημερώθηκε: 02/08/2021 23:50
ΜΗ Ενημερωμένο METAR!
Αίθριος
Αίθριος
 Ανεμοι από άπνοια
Ανεμος: άπνοια
Θερμοκρασία: 29°C
Δείκτης Δυσφορίας: 31°C
Σημείο Δρόσου: 20°C
Υγρασία: 58%
Βαρόμετρο: 1009 hPa
Περίληψη: Αίθριος
Ορατότητα: πάνω από 10 km
2021/08/02 20:50 LGMT 022050Z 00000KT CAVOK 29/20 Q1009
LGSY - Skiros Island-Elev 15m
Απόσταση από σταθμό: ΝΑ 227km
Ενημερώθηκε: 02/08/2021 20:50
ΜΗ Ενημερωμένο METAR!
Αίθριος
Αίθριος
 Ανεμοι από μεταβλητός
Ανεμος: μεταβλητός 6 km/h
Θερμοκρασία: 30°C
Δείκτης Δυσφορίας: 39°C
Σημείο Δρόσου: 27°C
Υγρασία: 84%
Βαρόμετρο: 1009 hPa
Περίληψη: Αίθριος
Ορατότητα: πάνω από 10 km
2021/08/02 17:50 LGSY 021750Z VRB03KT CAVOK 30/27 Q1009 BLU
 
LGKZ - Kozani-Elev 628m
Απόσταση από σταθμό: ΔΝΔ 102km
Ενημερώθηκε: 03/08/2021 00:50

 Ανεμοι από ΒΔ
Ανεμος: ΒΔ 7 km/h
Θερμοκρασία: 27°C
Σημείο Δρόσου: 5°C
Υγρασία: 24%
Βαρόμετρο: 1017 hPa
2021/08/02 21:50 LGKZ 022150Z AUTO 32004KT 280V340 //// // ////// 27/05 Q1017 RE//
LGIO - Ioannina-Elev 476m
Απόσταση από σταθμό: ΔΝΔ 209km
Ενημερώθηκε: 03/08/2021 00:50

 Ανεμοι από άπνοια
Ανεμος: άπνοια
Θερμοκρασία: 23°C
Σημείο Δρόσου: 14°C
Υγρασία: 57%
Βαρόμετρο: 1017 hPa
2021/08/02 21:50 LGIO 022150Z AUTO 00000KT //// // ////// 23/14 Q1017 RE//
 
LGZA - Zakinthos-Elev 3m
Απόσταση από σταθμό: ΝΝΔ 367km
Ενημερώθηκε: 02/08/2021 21:50
ΜΗ Ενημερωμένο METAR!
Αίθριος
Αίθριος
 Ανεμοι από ΒΒΑ
Ανεμος: ΒΒΑ 9 km/h
Θερμοκρασία: 31°C
Δείκτης Δυσφορίας: 32°C
Σημείο Δρόσου: 18°C
Υγρασία: 46%
Βαρόμετρο: 1012 hPa
Περίληψη: Αίθριος
Ορατότητα: πάνω από 10 km
2021/08/02 18:50 LGZA 021850Z 02005KT CAVOK 31/18 Q1012
LGKR - Corfu Island-Elev 2m
Απόσταση από σταθμό: ΔΝΔ 282km
Ενημερώθηκε: 03/08/2021 00:50
Αίθριος
Αίθριος
 Ανεμοι από άπνοια
Ανεμος: άπνοια
Θερμοκρασία: 29°C
Δείκτης Δυσφορίας: 31°C
Σημείο Δρόσου: 21°C
Υγρασία: 62%
Βαρόμετρο: 1012 hPa
Περίληψη: Αίθριος
Ορατότητα: πάνω από 10 km
2021/08/02 21:50 LGKR 022150Z 00000KT CAVOK 29/21 Q1012 NOSIG
 
LGSO - Syros Island-Elev 72m
Απόσταση από σταθμό: ΝΝΑ 397km
Ενημερώθηκε: 03/08/2021 00:50

 Ανεμοι από μεταβλητός
Ανεμος: μεταβλητός 4 km/h
Θερμοκρασία: 31°C
Σημείο Δρόσου: 13°C
Υγρασία: 33%
Βαρόμετρο: 1010 hPa
2021/08/02 21:50 LGSO 022150Z AUTO VRB02KT //// // ////// 31/13 Q1010 RE//
LGMK - Mikonos Island-Elev 123m
Απόσταση από σταθμό: ΝΝΑ 412km
Ενημερώθηκε: 03/08/2021 00:50
Αίθριος
Αίθριος
 Ανεμοι από μεταβλητός
Ανεμος: μεταβλητός 6 km/h
Θερμοκρασία: 30°C
Σημείο Δρόσου: 13°C
Υγρασία: 35%
Βαρόμετρο: 1010 hPa
Περίληψη: Αίθριος
Ορατότητα: πάνω από 10 km
2021/08/02 21:50 LGMK 022150Z VRB03KT CAVOK 30/13 Q1010
 
LGSR - Santorini Island-Elev 40m
Απόσταση από σταθμό: ΝΝΑ 520km
Ενημερώθηκε: 03/08/2021 00:20
Αίθριος
Αίθριος
 Ανεμοι από ΒΒΔ
Ανεμος: ΒΒΔ 19 km/h
Θερμοκρασία: 32°C
Σημείο Δρόσου: 15°C
Υγρασία: 36%
Βαρόμετρο: 1009 hPa
Περίληψη: Αίθριος
Ορατότητα: πάνω από 10 km
2021/08/02 21:20 LGSR 022120Z 33010KT CAVOK 32/15 Q1009
LGKL - Kalamata-Elev 8m
Απόσταση από σταθμό: Ν 405km
Ενημερώθηκε: 03/08/2021 00:50

 Ανεμοι από ΒΒΔ
Ανεμος: ΒΒΔ 9 km/h
Θερμοκρασία: 25°C
Σημείο Δρόσου: 17°C
Υγρασία: 61%
Βαρόμετρο: 1011 hPa
2021/08/02 21:50 LGKL 022150Z AUTO 33005KT //// // ////// 25/17 Q1011 RE//
 
LGIR - Iraklion/Crete-Elev 5m
Απόσταση από σταθμό: ΝΝΑ 622km
Ενημερώθηκε: 03/08/2021 00:50
Αίθριος
Αίθριος
 Ανεμοι από ΔΒΔ
Ανεμος: ΔΒΔ 22 km/h
Θερμοκρασία: 31°C
Δείκτης Δυσφορίας: 38°C
Σημείο Δρόσου: 25°C
Υγρασία: 70%
Βαρόμετρο: 1009 hPa
Περίληψη: Αίθριος
Ορατότητα: πάνω από 10 km
2021/08/02 21:50 LGIR 022150Z 30012KT CAVOK 31/25 Q1009 NOSIG
LGRP - Rhodes-Elev 5m
Απόσταση από σταθμό: ΝΑ 649km
Ενημερώθηκε: 03/08/2021 00:50
Μερικώς νεφελώδης
Μερικώς νεφελώδης
 Ανεμοι από ΝΔ
Ανεμος: ΝΔ 11 km/h
Θερμοκρασία: 32°C
Δείκτης Δυσφορίας: 36°C
Σημείο Δρόσου: 21°C
Υγρασία: 52%
Βαρόμετρο: 1005 hPa
Νέφωση: Μερικώς νεφελώδης
Ορατότητα: 10 km
Λεπτομέρειες Νεφών: Μερικώς νεφελώδης 549 m
2021/08/02 21:50 LGRP 022150Z 22006KT 9999 SCT018 32/21 Q1005 NOSIG
 
LWOH - Ohrid/FYROM-Elev 761m
Απόσταση από σταθμό: ΔΒΔ 188km
Ενημερώθηκε: 02/08/2021 22:30
ΜΗ Ενημερωμένο METAR!
Διάσπαρτα Νέφη
Διάσπαρτα Νέφη
 Ανεμοι από ΝΔ
Ανεμος: ΝΔ 11 km/h, Ριπή: 30 km/h
Θερμοκρασία: 26°C
Σημείο Δρόσου: 9°C
Υγρασία: 34%
Βαρόμετρο: 1018 hPa
Νέφωση: Διάσπαρτα Νέφη
Ορατότητα: 10 km
Λεπτομέρειες Νεφών: Διάσπαρτα Νέφη 1219 m
2021/08/02 19:30 LWOH 021930Z 22006G16KT 190V280 9999 FEW040 26/09 Q1018
LBSF - Sofia/Bulgaria-Elev 595m
Απόσταση από σταθμό: Β 227km
Ενημερώθηκε: 03/08/2021 01:00
Αίθριος
Αίθριος
 Ανεμοι από Δ
Ανεμος: Δ 22 km/h
Θερμοκρασία: 24°C
Σημείο Δρόσου: 17°C
Υγρασία: 65%
Βαρόμετρο: 1015 hPa
Περίληψη: Αίθριος
Ορατότητα: πάνω από 10 km
2021/08/02 22:00 LBSF 022200Z 27012KT CAVOK 24/17 Q1015 NOSIG